sensor_id;sensor_type;location;lat;lon;timestamp;pressure;altitude;pressure_sealevel;temperature;humidity
62710;BME280;48770;51.624;5.886;2023-02-17T00:03:37;101805.28;;;20.12;40.51
62710;BME280;48770;51.624;5.886;2023-02-17T00:06:10;101815.88;;;20.10;40.51
62710;BME280;48770;51.624;5.886;2023-02-17T00:08:36;101818.97;;;20.08;40.46
62710;BME280;48770;51.624;5.886;2023-02-17T00:11:02;101819.81;;;20.09;40.54
62710;BME280;48770;51.624;5.886;2023-02-17T00:13:28;101820.94;;;20.08;40.73
62710;BME280;48770;51.624;5.886;2023-02-17T00:15:53;101819.31;;;20.07;40.75
62710;BME280;48770;51.624;5.886;2023-02-17T00:18:18;101806.56;;;20.06;40.60
62710;BME280;48770;51.624;5.886;2023-02-17T00:20:44;101808.53;;;20.05;40.66
62710;BME280;48770;51.624;5.886;2023-02-17T00:23:09;101794.94;;;20.03;40.70
62710;BME280;48770;51.624;5.886;2023-02-17T00:25:36;101807.72;;;20.05;40.55
62710;BME280;48770;51.624;5.886;2023-02-17T00:28:01;101816.34;;;20.03;40.85
62710;BME280;48770;51.624;5.886;2023-02-17T00:30:27;101807.19;;;20.02;40.59
62710;BME280;48770;51.624;5.886;2023-02-17T00:32:52;101804.41;;;20.02;40.83
62710;BME280;48770;51.624;5.886;2023-02-17T00:35:18;101810.28;;;20.01;40.82
62710;BME280;48770;51.624;5.886;2023-02-17T00:37:43;101804.75;;;20.01;40.62
62710;BME280;48770;51.624;5.886;2023-02-17T00:40:10;101798.38;;;20.00;40.54
62710;BME280;48770;51.624;5.886;2023-02-17T00:42:36;101792.00;;;20.00;40.67
62710;BME280;48770;51.624;5.886;2023-02-17T00:45:02;101802.28;;;19.99;40.76
62710;BME280;48770;51.624;5.886;2023-02-17T00:47:27;101803.09;;;20.00;40.65
62710;BME280;48770;51.624;5.886;2023-02-17T00:49:53;101796.25;;;19.97;40.64
62710;BME280;48770;51.624;5.886;2023-02-17T00:52:18;101795.44;;;19.97;40.57
62710;BME280;48770;51.624;5.886;2023-02-17T00:54:43;101781.88;;;19.95;40.66
62710;BME280;48770;51.624;5.886;2023-02-17T00:57:09;101794.59;;;19.96;40.68
62710;BME280;48770;51.624;5.886;2023-02-17T00:59:35;101792.66;;;19.97;40.24
62710;BME280;48770;51.624;5.886;2023-02-17T01:02:00;101783.00;;;19.94;40.53
62710;BME280;48770;51.624;5.886;2023-02-17T01:04:26;101779.41;;;19.94;40.62
62710;BME280;48770;51.624;5.886;2023-02-17T01:06:51;101781.38;;;19.93;40.49
62710;BME280;48770;51.624;5.886;2023-02-17T01:09:16;101781.38;;;19.93;40.69
62710;BME280;48770;51.624;5.886;2023-02-17T01:11:42;101789.72;;;19.93;40.92
62710;BME280;48770;51.624;5.886;2023-02-17T01:14:12;101792.47;;;19.93;40.61
62710;BME280;48770;51.624;5.886;2023-02-17T01:16:39;101778.59;;;19.93;40.49
62710;BME280;48770;51.624;5.886;2023-02-17T01:19:11;101776.97;;;19.92;40.64
62710;BME280;48770;51.624;5.886;2023-02-17T01:21:37;101782.84;;;19.91;40.80
62710;BME280;48770;51.624;5.886;2023-02-17T01:24:04;101770.59;;;19.92;40.62
62710;BME280;48770;51.624;5.886;2023-02-17T01:26:32;101763.09;;;19.92;40.63
62710;BME280;48770;51.624;5.886;2023-02-17T01:28:58;101768.97;;;19.91;40.49
62710;BME280;48770;51.624;5.886;2023-02-17T01:31:24;101772.56;;;19.91;40.69
62710;BME280;48770;51.624;5.886;2023-02-17T01:33:56;101763.41;;;19.91;40.65
62710;BME280;48770;51.624;5.886;2023-02-17T01:36:22;101769.28;;;19.89;40.59
62710;BME280;48770;51.624;5.886;2023-02-17T01:38:48;101763.75;;;19.89;40.55
62710;BME280;48770;51.624;5.886;2023-02-17T01:41:14;101759.34;;;19.88;40.59
62710;BME280;48770;51.624;5.886;2023-02-17T01:43:41;101755.41;;;19.89;40.87
62710;BME280;48770;51.624;5.886;2023-02-17T01:46:06;101755.75;;;19.88;40.67
62710;BME280;48770;51.624;5.886;2023-02-17T01:48:45;101752.16;;;19.87;40.52
62710;BME280;48770;51.624;5.886;2023-02-17T01:51:17;101747.75;;;19.86;40.63
62710;BME280;48770;51.624;5.886;2023-02-17T01:54:08;101754.75;;;19.84;40.58
62710;BME280;48770;51.624;5.886;2023-02-17T01:56:39;101751.97;;;19.84;40.61
62710;BME280;48770;51.624;5.886;2023-02-17T01:59:18;101761.13;;;19.84;40.84
62710;BME280;48770;51.624;5.886;2023-02-17T02:01:46;101761.13;;;19.84;40.77
62710;BME280;48770;51.624;5.886;2023-02-17T02:04:13;101759.97;;;19.85;40.83
62710;BME280;48770;51.624;5.886;2023-02-17T02:06:39;101761.94;;;19.85;40.67
62710;BME280;48770;51.624;5.886;2023-02-17T02:09:11;101769.78;;;19.83;40.88
62710;BME280;48770;51.624;5.886;2023-02-17T02:11:38;101771.41;;;19.84;40.77
62710;BME280;48770;51.624;5.886;2023-02-17T02:14:06;101765.03;;;19.83;40.66
62710;BME280;48770;51.624;5.886;2023-02-17T02:19:17;101758.69;;;19.83;40.80
62710;BME280;48770;51.624;5.886;2023-02-17T02:22:29;101745.44;;;19.80;40.93
62710;BME280;48770;51.624;5.886;2023-02-17T02:39:03;101721.41;;;19.75;40.69
62710;BME280;48770;51.624;5.886;2023-02-17T02:41:21;101716.19;;;19.74;40.90
62710;BME280;48770;51.624;5.886;2023-02-17T02:43:48;101717.00;;;19.74;40.77
62710;BME280;48770;51.624;5.886;2023-02-17T02:46:14;101724.19;;;19.75;40.70
62710;BME280;48770;51.624;5.886;2023-02-17T02:48:40;101713.09;;;19.75;40.92
62710;BME280;48770;51.624;5.886;2023-02-17T02:59:23;101700.19;;;19.70;40.81
62710;BME280;48770;51.624;5.886;2023-02-17T03:02:16;101699.38;;;19.70;40.86
62710;BME280;48770;51.624;5.886;2023-02-17T03:04:53;101681.91;;;19.69;40.81
62710;BME280;48770;51.624;5.886;2023-02-17T03:07:29;101679.97;;;19.70;40.74
62710;BME280;48770;51.624;5.886;2023-02-17T03:09:57;101672.44;;;19.70;40.85
62710;BME280;48770;51.624;5.886;2023-02-17T03:12:24;101676.03;;;19.71;40.86
62710;BME280;48770;51.624;5.886;2023-02-17T03:14:56;101674.09;;;19.71;40.72
62710;BME280;48770;51.624;5.886;2023-02-17T03:17:24;101676.03;;;19.71;40.68
62710;BME280;48770;51.624;5.886;2023-02-17T03:19:49;101692.69;;;19.71;40.82
62710;BME280;48770;51.624;5.886;2023-02-17T03:22:20;101702.66;;;19.72;40.44
62710;BME280;48770;51.624;5.886;2023-02-17T03:24:46;101684.38;;;19.71;40.64
62710;BME280;48770;51.624;5.886;2023-02-17T03:27:12;101689.91;;;19.71;40.60
62710;BME280;48770;51.624;5.886;2023-02-17T03:29:37;101691.06;;;19.70;40.56
62710;BME280;48770;51.624;5.886;2023-02-17T03:32:03;101692.69;;;19.71;40.86
62710;BME280;48770;51.624;5.886;2023-02-17T03:34:29;101693.84;;;19.70;40.69
62710;BME280;48770;51.624;5.886;2023-02-17T03:36:54;101685.50;;;19.70;40.60
62710;BME280;48770;51.624;5.886;2023-02-17T03:39:20;101702.47;;;19.68;40.92
62710;BME280;48770;51.624;5.886;2023-02-17T03:41:45;101698.56;;;19.69;40.55
62710;BME280;48770;51.624;5.886;2023-02-17T03:44:12;101688.59;;;19.68;40.61
62710;BME280;48770;51.624;5.886;2023-02-17T03:46:38;101694.97;;;19.69;40.85
62710;BME280;48770;51.624;5.886;2023-02-17T03:49:04;101702.47;;;19.68;40.95
62710;BME280;48770;51.624;5.886;2023-02-17T03:51:29;101698.88;;;19.68;40.76
62710;BME280;48770;51.624;5.886;2023-02-17T03:53:55;101694.47;;;19.67;40.66
62710;BME280;48770;51.624;5.886;2023-02-17T03:56:20;101693.34;;;19.68;40.69
62710;BME280;48770;51.624;5.886;2023-02-17T03:58:46;101678.66;;;19.67;40.66
62710;BME280;48770;51.624;5.886;2023-02-17T04:01:12;101684.19;;;19.67;40.48
62710;BME280;48770;51.624;5.886;2023-02-17T04:03:38;101686.16;;;19.67;40.77
62710;BME280;48770;51.624;5.886;2023-02-17T04:06:05;101674.56;;;19.65;40.56
62710;BME280;48770;51.624;5.886;2023-02-17T04:08:31;101673.44;;;19.66;40.61
62710;BME280;48770;51.624;5.886;2023-02-17T04:10:59;101673.44;;;19.66;40.69
62710;BME280;48770;51.624;5.886;2023-02-17T04:13:25;101680.94;;;19.65;40.65
62710;BME280;48770;51.624;5.886;2023-02-17T04:15:51;101693.19;;;19.64;40.62
62710;BME280;48770;51.624;5.886;2023-02-17T04:18:17;101695.13;;;19.64;40.83
62710;BME280;48770;51.624;5.886;2023-02-17T04:20:43;101682.91;;;19.65;40.68
62710;BME280;48770;51.624;5.886;2023-02-17T04:23:10;101684.03;;;19.64;40.68
62710;BME280;48770;51.624;5.886;2023-02-17T04:25:36;101682.06;;;19.64;40.42
62710;BME280;48770;51.624;5.886;2023-02-17T04:28:06;101672.13;;;19.63;40.65
62710;BME280;48770;51.624;5.886;2023-02-17T04:30:32;101671.31;;;19.63;40.55
62710;BME280;48770;51.624;5.886;2023-02-17T04:32:58;101671.31;;;19.63;40.70
62710;BME280;48770;51.624;5.886;2023-02-17T04:35:24;101667.72;;;19.62;40.55
62710;BME280;48770;51.624;5.886;2023-02-17T04:37:49;101675.22;;;19.62;40.56
62710;BME280;48770;51.624;5.886;2023-02-17T04:40:15;101676.38;;;19.61;40.82
62710;BME280;48770;51.624;5.886;2023-02-17T04:42:41;101676.38;;;19.61;40.51
62710;BME280;48770;51.624;5.886;2023-02-17T04:45:07;101681.59;;;19.62;40.63
62710;BME280;48770;51.624;5.886;2023-02-17T04:47:33;101683.53;;;19.62;40.65
62710;BME280;48770;51.624;5.886;2023-02-17T04:49:58;101681.91;;;19.61;40.69
62710;BME280;48770;51.624;5.886;2023-02-17T04:52:24;101683.88;;;19.60;40.58
62710;BME280;48770;51.624;5.886;2023-02-17T04:54:49;101681.91;;;19.61;40.67
62710;BME280;48770;51.624;5.886;2023-02-17T04:57:16;101664.44;;;19.60;40.44
62710;BME280;48770;51.624;5.886;2023-02-17T04:59:41;101663.63;;;19.60;40.33
62710;BME280;48770;51.624;5.886;2023-02-17T05:02:06;101668.38;;;19.59;40.44
62710;BME280;48770;51.624;5.886;2023-02-17T05:04:32;101659.22;;;19.59;40.58
62710;BME280;48770;51.624;5.886;2023-02-17T05:06:58;101654.50;;;19.59;40.73
62710;BME280;48770;51.624;5.886;2023-02-17T05:09:23;101659.22;;;19.59;40.83
62710;BME280;48770;51.624;5.886;2023-02-17T05:11:49;101652.88;;;19.58;40.52
62710;BME280;48770;51.624;5.886;2023-02-17T05:14:14;101659.56;;;19.57;40.46
62710;BME280;48770;51.624;5.886;2023-02-17T05:16:39;101653.69;;;19.59;40.43
62710;BME280;48770;51.624;5.886;2023-02-17T05:19:05;101653.69;;;19.59;40.45
62710;BME280;48770;51.624;5.886;2023-02-17T05:21:30;101659.56;;;19.57;40.53
62710;BME280;48770;51.624;5.886;2023-02-17T05:23:56;101664.28;;;19.57;40.49
62710;BME280;48770;51.624;5.886;2023-02-17T05:26:22;101655.97;;;19.57;40.52
62710;BME280;48770;51.624;5.886;2023-02-17T05:28:47;101655.16;;;19.56;40.53
62710;BME280;48770;51.624;5.886;2023-02-17T05:31:12;101660.69;;;19.56;40.53
62710;BME280;48770;51.624;5.886;2023-02-17T05:33:38;101653.19;;;19.57;40.67
62710;BME280;48770;51.624;5.886;2023-02-17T05:36:05;101663.47;;;19.56;40.53
62710;BME280;48770;51.624;5.886;2023-02-17T05:38:32;101666.25;;;19.56;40.59
62710;BME280;48770;51.624;5.886;2023-02-17T05:40:57;101659.06;;;19.55;40.52
62710;BME280;48770;51.624;5.886;2023-02-17T05:43:23;101659.88;;;19.56;40.67
62710;BME280;48770;51.624;5.886;2023-02-17T05:45:48;101650.75;;;19.55;40.52
62710;BME280;48770;51.624;5.886;2023-02-17T05:48:14;101658.25;;;19.55;40.64
62710;BME280;48770;51.624;5.886;2023-02-17T05:50:39;101657.44;;;19.54;40.61
62710;BME280;48770;51.624;5.886;2023-02-17T05:53:04;101661.03;;;19.55;40.47
62710;BME280;48770;51.624;5.886;2023-02-17T05:55:30;101662.97;;;19.54;40.56
62710;BME280;48770;51.624;5.886;2023-02-17T05:57:55;101664.13;;;19.53;40.56
62710;BME280;48770;51.624;5.886;2023-02-17T06:00:21;101672.44;;;19.53;40.62
62710;BME280;48770;51.624;5.886;2023-02-17T06:02:46;101673.25;;;19.54;40.60
62710;BME280;48770;51.624;5.886;2023-02-17T06:05:11;101663.28;;;19.53;40.57
62710;BME280;48770;51.624;5.886;2023-02-17T06:07:37;101671.59;;;19.53;40.61
62710;BME280;48770;51.624;5.886;2023-02-17T06:10:03;101668.81;;;19.53;40.44
62710;BME280;48770;51.624;5.886;2023-02-17T06:12:28;101664.13;;;19.53;40.44
62710;BME280;48770;51.624;5.886;2023-02-17T06:14:54;101659.69;;;19.52;40.60
62710;BME280;48770;51.624;5.886;2023-02-17T06:17:19;101649.69;;;19.51;40.76
62710;BME280;48770;51.624;5.886;2023-02-17T06:19:44;101645.00;;;19.52;40.55
62710;BME280;48770;51.624;5.886;2023-02-17T06:22:10;101635.00;;;19.51;40.61
62710;BME280;48770;51.624;5.886;2023-02-17T06:24:35;101648.06;;;19.50;40.56
62710;BME280;48770;51.624;5.886;2023-02-17T06:27:00;101632.56;;;19.49;40.59
62710;BME280;48770;51.624;5.886;2023-02-17T06:29:26;101645.28;;;19.50;40.63
62710;BME280;48770;51.624;5.886;2023-02-17T06:31:52;101653.63;;;19.50;40.61
62710;BME280;48770;51.624;5.886;2023-02-17T06:34:18;101650.03;;;19.50;40.51
62710;BME280;48770;51.624;5.886;2023-02-17T06:36:44;101650.03;;;19.50;40.62
62710;BME280;48770;51.624;5.886;2023-02-17T06:39:09;101647.25;;;19.50;40.52
62710;BME280;48770;51.624;5.886;2023-02-17T06:41:35;101653.94;;;19.49;40.52
62710;BME280;48770;51.624;5.886;2023-02-17T06:44:00;101646.44;;;19.49;40.62
62710;BME280;48770;51.624;5.886;2023-02-17T06:46:26;101653.94;;;19.49;40.77
62710;BME280;48770;51.624;5.886;2023-02-17T06:48:51;101652.31;;;19.48;40.60
62710;BME280;48770;51.624;5.886;2023-02-17T06:51:16;101657.84;;;19.48;40.58
62710;BME280;48770;51.624;5.886;2023-02-17T06:53:41;101654.25;;;19.47;40.72
62710;BME280;48770;51.624;5.886;2023-02-17T06:56:07;101659.00;;;19.47;40.71
62710;BME280;48770;51.624;5.886;2023-02-17T06:58:32;101661.75;;;19.47;40.51
62710;BME280;48770;51.624;5.886;2023-02-17T07:00:59;101657.03;;;19.47;40.57
62710;BME280;48770;51.624;5.886;2023-02-17T07:03:25;101659.00;;;19.47;40.71
62710;BME280;48770;51.624;5.886;2023-02-17T07:05:55;101658.19;;;19.46;40.52
62710;BME280;48770;51.624;5.886;2023-02-17T07:08:21;101658.19;;;19.46;40.68
62710;BME280;48770;51.624;5.886;2023-02-17T07:10:46;101655.72;;;19.45;41.13
62710;BME280;48770;51.624;5.886;2023-02-17T07:13:12;101664.88;;;19.45;40.48
62710;BME280;48770;51.624;5.886;2023-02-17T07:15:37;101666.00;;;19.44;40.73
62710;BME280;48770;51.624;5.886;2023-02-17T07:18:02;101661.28;;;19.45;40.65
62710;BME280;48770;51.624;5.886;2023-02-17T07:20:28;101657.69;;;19.44;40.40
62710;BME280;48770;51.624;5.886;2023-02-17T07:22:54;101652.13;;;19.44;40.64
62710;BME280;48770;51.624;5.886;2023-02-17T07:25:19;101650.50;;;19.43;40.60
62710;BME280;48770;51.624;5.886;2023-02-17T07:27:45;101653.28;;;19.43;40.47
62710;BME280;48770;51.624;5.886;2023-02-17T07:30:10;101650.50;;;19.43;40.50
62710;BME280;48770;51.624;5.886;2023-02-17T07:32:36;101662.41;;;19.44;40.65
62710;BME280;48770;51.624;5.886;2023-02-17T07:35:01;101654.09;;;19.44;40.55
62710;BME280;48770;51.624;5.886;2023-02-17T07:37:27;101656.06;;;19.43;40.65
62710;BME280;48770;51.624;5.886;2023-02-17T07:39:52;101655.25;;;19.42;40.73
62710;BME280;48770;51.624;5.886;2023-02-17T07:42:17;101637.47;;;19.44;40.66
62710;BME280;48770;51.624;5.886;2023-02-17T07:44:42;101644.16;;;19.42;40.56
62710;BME280;48770;51.624;5.886;2023-02-17T07:47:08;101638.59;;;19.42;40.60
62710;BME280;48770;51.624;5.886;2023-02-17T07:49:33;101644.97;;;19.43;40.56
62710;BME280;48770;51.624;5.886;2023-02-17T07:51:59;101647.72;;;19.43;40.62
62710;BME280;48770;51.624;5.886;2023-02-17T07:54:24;101639.75;;;19.41;40.71
62710;BME280;48770;51.624;5.886;2023-02-17T07:56:49;101637.78;;;19.42;40.48
62710;BME280;48770;51.624;5.886;2023-02-17T07:59:15;101639.41;;;19.43;40.69
62710;BME280;48770;51.624;5.886;2023-02-17T08:01:41;101643.00;;;19.44;40.61
62710;BME280;48770;51.624;5.886;2023-02-17T08:04:06;101633.88;;;19.43;40.56
62710;BME280;48770;51.624;5.886;2023-02-17T08:06:32;101624.72;;;19.42;40.41
62710;BME280;48770;51.624;5.886;2023-02-17T08:08:57;101631.41;;;19.41;40.59
62710;BME280;48770;51.624;5.886;2023-02-17T08:11:41;101619.84;;;19.39;40.44
62710;BME280;48770;51.624;5.886;2023-02-17T08:14:28;101621.47;;;19.40;40.77
62710;BME280;48770;51.624;5.886;2023-02-17T08:16:54;101627.81;;;19.41;40.57
62710;BME280;48770;51.624;5.886;2023-02-17T08:19:20;101637.78;;;19.42;40.55
62710;BME280;48770;51.624;5.886;2023-02-17T08:21:45;101644.16;;;19.42;40.59
62710;BME280;48770;51.624;5.886;2023-02-17T08:24:11;101639.41;;;19.43;40.39
62710;BME280;48770;51.624;5.886;2023-02-17T08:26:37;101633.06;;;19.42;40.82
62710;BME280;48770;51.624;5.886;2023-02-17T08:29:03;101623.59;;;19.44;40.59
62710;BME280;48770;51.624;5.886;2023-02-17T08:31:31;101641.88;;;19.45;40.65
62710;BME280;48770;51.624;5.886;2023-02-17T08:33:59;101635.50;;;19.44;40.45
62710;BME280;48770;51.624;5.886;2023-02-17T08:36:25;101645.78;;;19.44;40.59
62710;BME280;48770;51.624;5.886;2023-02-17T08:38:53;101638.59;;;19.42;40.59
62710;BME280;48770;51.624;5.886;2023-02-17T08:41:22;101651.00;;;19.45;40.67
62710;BME280;48770;51.624;5.886;2023-02-17T08:43:48;101652.13;;;19.44;40.58
62710;BME280;48770;51.624;5.886;2023-02-17T08:46:14;101644.63;;;19.45;40.69
62710;BME280;48770;51.624;5.886;2023-02-17T08:48:41;101650.19;;;19.45;40.64
62710;BME280;48770;51.624;5.886;2023-02-17T08:51:06;101648.22;;;19.45;40.65
62710;BME280;48770;51.624;5.886;2023-02-17T08:53:33;101653.78;;;19.45;40.34
62710;BME280;48770;51.624;5.886;2023-02-17T08:55:58;101650.19;;;19.45;40.59
62710;BME280;48770;51.624;5.886;2023-02-17T08:58:24;101662.09;;;19.45;40.41
62710;BME280;48770;51.624;5.886;2023-02-17T09:00:49;101655.72;;;19.45;40.61
62710;BME280;48770;51.624;5.886;2023-02-17T09:03:15;101657.69;;;19.44;40.60
62710;BME280;48770;51.624;5.886;2023-02-17T09:05:40;101655.72;;;19.45;40.55
62710;BME280;48770;51.624;5.886;2023-02-17T09:08:06;101661.28;;;19.45;40.69
62710;BME280;48770;51.624;5.886;2023-02-17T09:10:31;101666.81;;;19.45;40.67
62710;BME280;48770;51.624;5.886;2023-02-17T09:12:56;101675.16;;;19.45;40.74
62710;BME280;48770;51.624;5.886;2023-02-17T09:15:22;101682.66;;;19.44;40.61
62710;BME280;48770;51.624;5.886;2023-02-17T09:17:47;101683.47;;;19.45;40.47
62710;BME280;48770;51.624;5.886;2023-02-17T09:20:13;101690.16;;;19.44;40.46
62710;BME280;48770;51.624;5.886;2023-02-17T09:22:39;101697.34;;;19.45;40.61
62710;BME280;48770;51.624;5.886;2023-02-17T09:25:04;101705.66;;;19.45;40.58
62710;BME280;48770;51.624;5.886;2023-02-17T09:27:30;101707.28;;;19.46;40.64
62710;BME280;48770;51.624;5.886;2023-02-17T09:29:56;101713.97;;;19.45;40.62
62710;BME280;48770;51.624;5.886;2023-02-17T09:32:21;101699.28;;;19.44;40.65
62710;BME280;48770;51.624;5.886;2023-02-17T09:34:47;101699.63;;;19.42;40.42
62710;BME280;48770;51.624;5.886;2023-02-17T09:37:15;101719.53;;;19.45;40.64
62710;BME280;48770;51.624;5.886;2023-02-17T09:39:42;101710.38;;;19.44;40.60
62710;BME280;48770;51.624;5.886;2023-02-17T09:42:35;101717.88;;;19.44;40.69
62710;BME280;48770;51.624;5.886;2023-02-17T09:45:12;101714.63;;;19.41;40.77
62710;BME280;48770;51.624;5.886;2023-02-17T09:47:47;101710.69;;;19.42;40.72
62710;BME280;48770;51.624;5.886;2023-02-17T09:50:17;101708.75;;;19.43;40.87
62710;BME280;48770;51.624;5.886;2023-02-17T09:53:02;101719.03;;;19.42;40.65
62710;BME280;48770;51.624;5.886;2023-02-17T09:55:36;101714.63;;;19.41;40.69
62710;BME280;48770;51.624;5.886;2023-02-17T10:00:39;101713.47;;;19.42;40.74
62710;BME280;48770;51.624;5.886;2023-02-17T10:05:44;101724.56;;;19.42;40.61
62710;BME280;48770;51.624;5.886;2023-02-17T10:08:39;101718.03;;;19.38;40.63
62710;BME280;48770;51.624;5.886;2023-02-17T10:11:21;101734.34;;;19.40;40.70
62710;BME280;48770;51.624;5.886;2023-02-17T10:13:53;101729.63;;;19.40;40.93
62710;BME280;48770;51.624;5.886;2023-02-17T10:16:25;101713.81;;;19.41;40.91
62710;BME280;48770;51.624;5.886;2023-02-17T10:18:59;101699.69;;;19.20;40.94
62710;BME280;48770;51.624;5.886;2023-02-17T10:21:32;101691.59;;;19.32;40.86
62710;BME280;48770;51.624;5.886;2023-02-17T10:23:59;101700.59;;;19.38;41.03
62710;BME280;48770;51.624;5.886;2023-02-17T10:26:46;101707.28;;;19.37;40.86
62710;BME280;48770;51.624;5.886;2023-02-17T10:29:30;101697.00;;;19.37;40.90
62710;BME280;48770;51.624;5.886;2023-02-17T10:32:23;101704.16;;;19.38;40.87
62710;BME280;48770;51.624;5.886;2023-02-17T10:35:13;101700.91;;;19.36;41.02
62710;BME280;48770;51.624;5.886;2023-02-17T10:37:58;101693.91;;;19.39;40.77
62710;BME280;48770;51.624;5.886;2023-02-17T10:40:27;101682.47;;;19.40;41.07
62710;BME280;48770;51.624;5.886;2023-02-17T10:43:00;101686.88;;;19.41;40.83
62710;BME280;48770;51.624;5.886;2023-02-17T10:45:39;101680.53;;;19.41;41.02
62710;BME280;48770;51.624;5.886;2023-02-17T10:48:20;101696.84;;;19.42;41.03
62710;BME280;48770;51.624;5.886;2023-02-17T10:50:47;101694.88;;;19.43;41.33
62710;BME280;48770;51.624;5.886;2023-02-17T10:53:18;101708.44;;;19.45;40.93
62710;BME280;48770;51.624;5.886;2023-02-17T11:01:15;101716.25;;;19.42;41.25
62710;BME280;48770;51.624;5.886;2023-02-17T11:03:41;101722.28;;;19.45;41.14
62710;BME280;48770;51.624;5.886;2023-02-17T11:06:20;101732.56;;;19.44;41.01
62710;BME280;48770;51.624;5.886;2023-02-17T11:08:51;101727.50;;;19.46;41.21
62710;BME280;48770;51.624;5.886;2023-02-17T11:11:20;101711.69;;;19.47;41.13
62710;BME280;48770;51.624;5.886;2023-02-17T11:14:11;101701.75;;;19.46;41.14
62710;BME280;48770;51.624;5.886;2023-02-17T11:16:45;101692.28;;;19.47;41.24
62710;BME280;48770;51.624;5.886;2023-02-17T11:19:21;101707.28;;;19.46;41.17
62710;BME280;48770;51.624;5.886;2023-02-17T11:21:52;101710.06;;;19.46;41.41
62710;BME280;48770;51.624;5.886;2023-02-17T11:24:18;101703.38;;;19.47;41.54
62710;BME280;48770;51.624;5.886;2023-02-17T11:27:00;101697.50;;;19.48;41.58
62710;BME280;48770;51.624;5.886;2023-02-17T11:29:26;101678.91;;;19.49;41.43
62710;BME280;48770;51.624;5.886;2023-02-17T11:31:58;101674.66;;;19.51;41.82
62710;BME280;48770;51.624;5.886;2023-02-17T11:34:28;101675.22;;;19.53;41.83
62710;BME280;48770;51.624;5.886;2023-02-17T11:39:40;101672.94;;;19.55;41.71
62710;BME280;48770;51.624;5.886;2023-02-17T11:42:26;101670.66;;;19.57;41.92
62710;BME280;48770;51.624;5.886;2023-02-17T11:44:54;101685.00;;;19.59;41.93
62710;BME280;48770;51.624;5.886;2023-02-17T11:55:17;101691.72;;;19.67;41.86
62710;BME280;48770;51.624;5.886;2023-02-17T11:57:52;101696.59;;;19.70;42.02
62710;BME280;48770;51.624;5.886;2023-02-17T12:01:02;101684.03;;;19.73;41.73
62710;BME280;48770;51.624;5.886;2023-02-17T12:03:40;101680.44;;;19.72;42.06
62710;BME280;48770;51.624;5.886;2023-02-17T12:06:31;101694.47;;;19.76;41.75
62710;BME280;48770;51.624;5.886;2023-02-17T12:09:01;101694.97;;;19.78;41.82
62710;BME280;48770;51.624;5.886;2023-02-17T12:16:51;101703.66;;;19.85;41.78
62710;BME280;48770;51.624;5.886;2023-02-17T12:19:44;101699.75;;;19.86;41.85
62710;BME280;48770;51.624;5.886;2023-02-17T12:27:37;101725.06;;;19.84;41.86
62710;BME280;48770;51.624;5.886;2023-02-17T12:35:54;101738.44;;;19.91;41.87
62710;BME280;48770;51.624;5.886;2023-02-17T12:38:31;101726.19;;;19.92;41.76
62710;BME280;48770;51.624;5.886;2023-02-17T12:43:40;101718.84;;;19.96;41.75
62710;BME280;48770;51.624;5.886;2023-02-17T12:46:14;101719.66;;;19.96;41.78
62710;BME280;48770;51.624;5.886;2023-02-17T12:49:02;101718.84;;;19.96;42.00
62710;BME280;48770;51.624;5.886;2023-02-17T12:51:47;101729.28;;;19.99;41.83
62710;BME280;48770;51.624;5.886;2023-02-17T12:54:19;101723.91;;;20.02;41.55
62710;BME280;48770;51.624;5.886;2023-02-17T12:59:38;101712.50;;;20.04;41.83
62710;BME280;48770;51.624;5.886;2023-02-17T13:04:33;101742.06;;;20.09;41.89
62710;BME280;48770;51.624;5.886;2023-02-17T13:10:03;101736.50;;;20.09;42.05
62710;BME280;48770;51.624;5.886;2023-02-17T13:12:35;101748.09;;;20.11;41.96
62710;BME280;48770;51.624;5.886;2023-02-17T13:15:25;101752.03;;;20.10;41.90
62710;BME280;48770;51.624;5.886;2023-02-17T13:18:00;101762.47;;;20.13;41.71
62710;BME280;48770;51.624;5.886;2023-02-17T13:23:12;101767.38;;;20.16;41.82
62710;BME280;48770;51.624;5.886;2023-02-17T13:25:38;101771.13;;;20.20;41.92
62710;BME280;48770;51.624;5.886;2023-02-17T13:28:37;101775.53;;;20.21;41.70
62710;BME280;48770;51.624;5.886;2023-02-17T13:31:21;101782.56;;;20.27;41.54
62710;BME280;48770;51.624;5.886;2023-02-17T13:33:57;101790.25;;;20.13;41.96
62710;BME280;48770;51.624;5.886;2023-02-17T13:38:54;101800.88;;;20.37;41.52
62710;BME280;48770;51.624;5.886;2023-02-17T13:41:20;101805.50;;;20.41;41.43
62710;BME280;48770;51.624;5.886;2023-02-17T13:43:46;101814.00;;;20.45;41.52
62710;BME280;48770;51.624;5.886;2023-02-17T13:46:25;101807.78;;;20.48;41.18
62710;BME280;48770;51.624;5.886;2023-02-17T13:49:00;101796.34;;;20.49;41.14
62710;BME280;48770;51.624;5.886;2023-02-17T13:51:28;101794.03;;;20.51;41.23
62710;BME280;48770;51.624;5.886;2023-02-17T13:53:54;101797.31;;;20.53;41.21
62710;BME280;48770;51.624;5.886;2023-02-17T13:56:29;101808.91;;;20.55;41.08
62710;BME280;48770;51.624;5.886;2023-02-17T13:59:12;101820.03;;;20.55;41.00
62710;BME280;48770;51.624;5.886;2023-02-17T14:01:42;101820.53;;;20.57;40.89
62710;BME280;48770;51.624;5.886;2023-02-17T14:04:28;101824.97;;;20.58;40.79
62710;BME280;48770;51.624;5.886;2023-02-17T14:06:57;101827.41;;;20.60;41.14
62710;BME280;48770;51.624;5.886;2023-02-17T14:09:26;101825.13;;;20.62;40.77
62710;BME280;48770;51.624;5.886;2023-02-17T14:11:53;101815.63;;;20.63;40.65
62710;BME280;48770;51.624;5.886;2023-02-17T14:14:22;101830.00;;;20.65;40.98
62710;BME280;48770;51.624;5.886;2023-02-17T14:16:57;101828.06;;;20.66;40.51
62710;BME280;48770;51.624;5.886;2023-02-17T14:19:23;101831.66;;;20.66;40.61
62710;BME280;48770;51.624;5.886;2023-02-17T14:22:03;101829.69;;;20.67;40.75